createdAt,value
2018-01-03T00:00:56.859Z,0.00
2018-01-03T00:01:56.834Z,0.00
2018-01-03T00:02:56.812Z,0.00
2018-01-03T00:03:56.798Z,0.00
2018-01-03T00:04:56.791Z,0.00
2018-01-03T00:05:56.760Z,0.00
2018-01-03T00:06:56.732Z,0.00
2018-01-03T00:07:56.716Z,0.00
2018-01-03T00:08:56.696Z,0.00
2018-01-03T00:09:56.667Z,0.00
2018-01-03T00:10:56.648Z,0.00
2018-01-03T00:11:56.627Z,0.00
2018-01-03T00:12:56.605Z,0.00
2018-01-03T00:13:56.588Z,0.00
2018-01-03T00:14:56.572Z,0.00
2018-01-03T00:15:56.554Z,0.00
2018-01-03T00:16:56.525Z,0.00
2018-01-03T00:17:56.508Z,0.00
2018-01-03T00:18:56.490Z,0.00
2018-01-03T00:19:56.464Z,0.00
2018-01-03T00:20:56.455Z,0.00
2018-01-03T00:21:56.428Z,0.00
2018-01-03T00:22:56.423Z,0.00
2018-01-03T00:23:56.384Z,0.00
2018-01-03T00:24:56.362Z,0.00
2018-01-03T00:25:56.338Z,0.00
2018-01-03T00:26:56.324Z,0.00
2018-01-03T00:27:56.298Z,0.00
2018-01-03T00:28:56.282Z,0.00
2018-01-03T00:29:56.260Z,0.00
2018-01-03T00:30:56.237Z,0.00
2018-01-03T00:31:56.220Z,0.00
2018-01-03T00:32:56.199Z,0.00
2018-01-03T00:33:56.178Z,0.00
2018-01-03T00:34:56.158Z,0.00
2018-01-03T00:35:56.149Z,0.00
2018-01-03T00:36:56.114Z,0.00
2018-01-03T00:37:56.103Z,0.00
2018-01-03T00:38:56.078Z,0.00
2018-01-03T00:39:56.057Z,0.00
2018-01-03T00:40:56.049Z,0.00
2018-01-03T00:41:56.014Z,0.00
2018-01-03T00:42:55.992Z,0.00
2018-01-03T00:43:55.967Z,0.00
2018-01-03T00:44:55.953Z,0.00
2018-01-03T00:45:55.930Z,0.00
2018-01-03T00:46:55.914Z,0.00
2018-01-03T00:47:55.884Z,0.00
2018-01-03T00:48:55.867Z,0.00
2018-01-03T00:49:55.853Z,0.00
2018-01-03T00:50:55.846Z,0.00
2018-01-03T00:51:55.806Z,0.00
2018-01-03T00:52:55.783Z,0.00
2018-01-03T00:53:55.768Z,0.00
2018-01-03T00:54:55.745Z,0.00
2018-01-03T00:55:55.729Z,0.00
2018-01-03T00:56:55.703Z,0.00
2018-01-03T00:57:55.680Z,0.00
2018-01-03T00:58:55.668Z,0.00
2018-01-03T00:59:55.647Z,0.00
2018-01-03T01:00:55.623Z,0.00
2018-01-03T01:01:55.601Z,0.00
2018-01-03T01:02:55.584Z,0.00
2018-01-03T01:03:55.558Z,0.00
2018-01-03T01:04:55.548Z,0.00
2018-01-03T01:05:55.521Z,0.00
2018-01-03T01:06:55.496Z,0.00
2018-01-03T01:07:55.475Z,0.00
2018-01-03T01:08:55.456Z,0.00
2018-01-03T01:09:55.438Z,0.00
2018-01-03T01:10:55.416Z,0.00
2018-01-03T01:11:55.395Z,0.00
2018-01-03T01:12:55.378Z,0.00
2018-01-03T01:13:55.374Z,0.00
2018-01-03T01:14:55.335Z,0.00
2018-01-03T01:15:55.314Z,0.00
2018-01-03T01:16:55.293Z,0.00
2018-01-03T01:17:55.272Z,0.00
2018-01-03T01:18:55.250Z,0.00
2018-01-03T01:19:55.236Z,0.00
2018-01-03T01:20:55.211Z,0.00
2018-01-03T01:21:55.191Z,0.00
2018-01-03T01:22:55.171Z,0.00
2018-01-03T01:23:55.162Z,0.00
2018-01-03T01:24:55.132Z,0.00
2018-01-03T01:25:55.113Z,0.00
2018-01-03T01:26:55.088Z,0.00
2018-01-03T01:27:55.069Z,0.00
2018-01-03T01:28:55.047Z,0.00
2018-01-03T01:29:55.041Z,0.00
2018-01-03T01:30:55.013Z,0.00
2018-01-03T01:31:54.992Z,0.00
2018-01-03T01:32:54.967Z,0.00
2018-01-03T01:33:54.967Z,0.00
2018-01-03T01:34:54.935Z,0.00
2018-01-03T01:35:54.903Z,0.00
2018-01-03T01:36:54.883Z,0.00
2018-01-03T01:37:54.871Z,0.00
2018-01-03T01:38:54.855Z,0.00
2018-01-03T01:39:54.828Z,0.00
2018-01-03T01:40:54.804Z,0.00
2018-01-03T01:41:54.802Z,0.00
2018-01-03T01:42:54.772Z,0.00
2018-01-03T01:43:54.745Z,0.00
2018-01-03T01:44:54.724Z,0.00
2018-01-03T01:45:54.701Z,0.00
2018-01-03T01:46:54.680Z,0.00
2018-01-03T01:47:54.664Z,0.00
2018-01-03T01:48:54.641Z,0.00
2018-01-03T01:49:54.617Z,0.00
2018-01-03T01:50:54.600Z,0.00
2018-01-03T01:51:54.581Z,0.00
2018-01-03T01:52:54.558Z,0.00
2018-01-03T01:53:54.546Z,0.00
2018-01-03T01:54:54.517Z,0.00
2018-01-03T01:55:54.498Z,0.00
2018-01-03T01:56:54.477Z,0.00
2018-01-03T01:57:54.460Z,0.00
2018-01-03T01:58:54.438Z,0.00
2018-01-03T01:59:54.418Z,0.00
2018-01-03T02:00:54.405Z,0.00
2018-01-03T02:01:54.374Z,0.00
2018-01-03T02:02:54.355Z,0.00
2018-01-03T02:03:54.345Z,0.00
2018-01-03T02:04:54.321Z,0.00
2018-01-03T02:05:54.297Z,0.00
2018-01-03T02:06:54.278Z,0.00
2018-01-03T02:07:54.253Z,0.00
2018-01-03T02:08:54.243Z,0.00
2018-01-03T02:09:54.213Z,0.00
2018-01-03T02:10:54.198Z,0.00
2018-01-03T02:11:54.180Z,0.00
2018-01-03T02:12:54.158Z,0.00
2018-01-03T02:13:54.136Z,0.00
2018-01-03T02:14:54.121Z,0.00
2018-01-03T02:15:54.094Z,0.00
2018-01-03T02:16:54.071Z,0.00
2018-01-03T02:17:54.058Z,0.00
2018-01-03T02:18:54.032Z,0.00
2018-01-03T02:19:54.014Z,0.00
2018-01-03T02:20:53.992Z,0.00
2018-01-03T02:21:53.978Z,0.00
2018-01-03T02:22:53.952Z,0.00
2018-01-03T02:23:53.931Z,0.00
2018-01-03T02:24:53.910Z,0.00
2018-01-03T02:25:53.888Z,0.00
2018-01-03T02:26:53.870Z,0.00
2018-01-03T02:27:53.850Z,0.00
2018-01-03T02:28:53.832Z,0.00
2018-01-03T02:29:53.810Z,0.00
2018-01-03T02:30:53.791Z,0.00
2018-01-03T02:31:53.791Z,0.00
2018-01-03T02:32:53.746Z,0.00
2018-01-03T02:33:53.731Z,0.00
2018-01-03T02:34:53.706Z,0.00
2018-01-03T02:35:53.689Z,0.00
2018-01-03T02:36:53.670Z,0.00
2018-01-03T02:37:53.648Z,0.00
2018-01-03T02:38:53.625Z,0.00
2018-01-03T02:39:53.610Z,0.00
2018-01-03T02:40:53.587Z,0.00
2018-01-03T02:41:53.564Z,0.00
2018-01-03T02:42:53.546Z,0.00
2018-01-03T02:43:53.527Z,0.00
2018-01-03T02:44:53.512Z,0.00
2018-01-03T02:45:53.492Z,0.00
2018-01-03T02:46:53.476Z,0.00
2018-01-03T02:47:53.445Z,0.00
2018-01-03T02:48:53.420Z,0.00
2018-01-03T02:49:53.404Z,0.00
2018-01-03T02:50:53.389Z,0.00
2018-01-03T02:51:53.365Z,0.00
2018-01-03T02:52:53.343Z,0.00
2018-01-03T02:53:53.330Z,0.00
2018-01-03T02:54:53.304Z,0.00
2018-01-03T02:55:53.283Z,0.00
2018-01-03T02:56:53.259Z,0.00
2018-01-03T02:57:53.242Z,0.00
2018-01-03T02:58:53.221Z,0.00
2018-01-03T02:59:53.202Z,0.00
2018-01-03T03:00:53.184Z,0.00
2018-01-03T03:01:53.165Z,0.00
2018-01-03T03:02:53.143Z,0.00
2018-01-03T03:03:53.119Z,0.00
2018-01-03T03:04:53.102Z,0.00
2018-01-03T03:05:53.079Z,0.00
2018-01-03T03:06:53.064Z,0.00
2018-01-03T03:07:53.039Z,0.00
2018-01-03T03:08:53.018Z,0.00
2018-01-03T03:09:53.000Z,0.00
2018-01-03T03:10:52.979Z,0.00
2018-01-03T03:11:52.962Z,0.00
2018-01-03T03:12:52.941Z,0.00
2018-01-03T03:13:52.921Z,0.00
2018-01-03T03:14:52.897Z,0.00
2018-01-03T03:15:52.883Z,0.00
2018-01-03T03:16:52.859Z,0.00
2018-01-03T03:17:52.844Z,0.00
2018-01-03T03:18:52.825Z,0.00
2018-01-03T03:19:52.806Z,0.00
2018-01-03T03:20:52.779Z,0.00
2018-01-03T03:21:52.760Z,0.00
2018-01-03T03:22:52.741Z,0.00
2018-01-03T03:23:52.718Z,0.00
2018-01-03T03:24:52.700Z,0.00
2018-01-03T03:25:52.677Z,0.00
2018-01-03T03:26:52.666Z,0.00
2018-01-03T03:27:52.637Z,0.00
2018-01-03T03:28:52.619Z,0.00
2018-01-03T03:29:52.597Z,0.00
2018-01-03T03:30:52.582Z,0.00
2018-01-03T03:31:52.559Z,0.00
2018-01-03T03:32:52.536Z,0.00
2018-01-03T03:33:52.521Z,0.00
2018-01-03T03:34:52.494Z,0.00
2018-01-03T03:35:52.479Z,0.00
2018-01-03T03:36:52.456Z,0.00
2018-01-03T03:37:52.442Z,0.00
2018-01-03T03:38:52.418Z,0.00
2018-01-03T03:39:52.396Z,0.00
2018-01-03T03:40:52.375Z,0.00
2018-01-03T03:41:52.353Z,0.00
2018-01-03T03:42:52.337Z,0.00
2018-01-03T03:43:52.312Z,0.00
2018-01-03T03:44:52.290Z,0.00
2018-01-03T03:45:52.272Z,0.00
2018-01-03T03:46:52.257Z,0.00
2018-01-03T03:47:52.232Z,0.00
2018-01-03T03:48:52.223Z,0.00
2018-01-03T03:49:52.193Z,0.00
2018-01-03T03:50:52.172Z,0.00
2018-01-03T03:51:52.154Z,0.00
2018-01-03T03:52:52.138Z,0.00
2018-01-03T03:53:52.112Z,0.00
2018-01-03T03:54:52.093Z,0.00
2018-01-03T03:55:52.072Z,0.00
2018-01-03T03:56:52.051Z,0.00
2018-01-03T03:57:52.036Z,0.00
2018-01-03T03:58:52.018Z,0.00
2018-01-03T03:59:51.997Z,0.00
2018-01-03T04:00:51.973Z,0.00
2018-01-03T04:01:51.955Z,0.00
2018-01-03T04:02:51.932Z,0.00
2018-01-03T04:03:51.911Z,0.00
2018-01-03T04:04:51.891Z,0.00
2018-01-03T04:05:51.876Z,0.00
2018-01-03T04:06:51.857Z,0.00
2018-01-03T04:07:51.832Z,0.00
2018-01-03T04:08:51.812Z,0.00
2018-01-03T04:09:51.795Z,0.00
2018-01-03T04:10:51.777Z,0.00
2018-01-03T04:11:51.773Z,0.00
2018-01-03T04:12:51.734Z,0.00
2018-01-03T04:13:51.715Z,0.00
2018-01-03T04:14:51.694Z,0.00
2018-01-03T04:15:51.682Z,0.00
2018-01-03T04:16:51.694Z,0.00
2018-01-03T04:17:51.639Z,0.00
2018-01-03T04:18:51.615Z,0.00
2018-01-03T04:19:51.595Z,0.00
2018-01-03T04:20:51.575Z,0.00
2018-01-03T04:21:51.558Z,0.00
2018-01-03T04:22:51.536Z,0.00
2018-01-03T04:23:51.511Z,0.00
2018-01-03T04:24:51.498Z,0.00
2018-01-03T04:25:51.475Z,0.00
2018-01-03T04:26:51.455Z,0.00
2018-01-03T04:27:51.435Z,0.00
2018-01-03T04:28:51.412Z,0.00
2018-01-03T04:29:51.399Z,0.00
2018-01-03T04:30:51.379Z,0.00
2018-01-03T04:31:51.361Z,0.00
2018-01-03T04:32:51.338Z,0.00
2018-01-03T04:33:51.334Z,0.00
2018-01-03T04:34:51.297Z,0.00
2018-01-03T04:35:51.278Z,0.00
2018-01-03T04:36:51.255Z,0.00
2018-01-03T04:37:51.235Z,0.00
2018-01-03T04:38:51.219Z,0.00
2018-01-03T04:39:51.197Z,0.00
2018-01-03T04:40:51.182Z,0.00
2018-01-03T04:41:51.160Z,0.00
2018-01-03T04:42:51.141Z,0.00
2018-01-03T04:43:51.122Z,0.00
2018-01-03T04:44:51.104Z,0.00
2018-01-03T04:45:51.088Z,0.00
2018-01-03T04:46:51.059Z,0.00
2018-01-03T04:47:51.037Z,0.00
2018-01-03T04:48:51.020Z,0.00
2018-01-03T04:49:50.999Z,0.00
2018-01-03T04:50:50.980Z,0.00
2018-01-03T04:51:50.956Z,0.00
2018-01-03T04:52:50.939Z,0.00
2018-01-03T04:53:50.918Z,0.00
2018-01-03T04:54:50.910Z,0.00
2018-01-03T04:55:50.878Z,0.00
2018-01-03T04:56:50.859Z,0.00
2018-01-03T04:57:50.839Z,0.00
2018-01-03T04:58:50.819Z,0.00
2018-01-03T04:59:50.801Z,0.00
2018-01-03T05:00:50.778Z,0.00
2018-01-03T05:01:50.760Z,0.00
2018-01-03T05:02:50.747Z,0.00
2018-01-03T05:03:50.729Z,0.00
2018-01-03T05:04:50.703Z,0.00
2018-01-03T05:05:50.684Z,0.00
2018-01-03T05:06:50.663Z,0.00
2018-01-03T05:07:50.641Z,0.00
2018-01-03T05:08:50.627Z,0.00
2018-01-03T05:09:50.606Z,0.00
2018-01-03T05:10:50.585Z,0.00
2018-01-03T05:11:50.564Z,0.00
2018-01-03T05:12:50.547Z,0.00
2018-01-03T05:13:50.530Z,0.00
2018-01-03T05:14:50.506Z,0.00
2018-01-03T05:15:50.484Z,0.00
2018-01-03T05:16:50.471Z,0.00
2018-01-03T05:17:50.458Z,0.00
2018-01-03T05:18:50.426Z,0.00
2018-01-03T05:19:50.409Z,0.00
2018-01-03T05:20:50.392Z,0.00
2018-01-03T05:21:50.369Z,0.00
2018-01-03T05:22:50.348Z,0.00
2018-01-03T05:23:50.338Z,0.00
2018-01-03T05:24:50.317Z,0.00
2018-01-03T05:25:50.292Z,0.00
2018-01-03T05:26:50.275Z,0.00
2018-01-03T05:27:50.255Z,0.00
2018-01-03T05:28:50.236Z,0.00
2018-01-03T05:29:50.214Z,0.00
2018-01-03T05:30:50.198Z,0.00
2018-01-03T05:31:50.175Z,0.00
2018-01-03T05:32:50.161Z,0.00
2018-01-03T05:33:50.140Z,0.00
2018-01-03T05:34:50.127Z,0.00
2018-01-03T05:35:50.102Z,0.00
2018-01-03T05:36:50.080Z,0.00
2018-01-03T05:37:50.059Z,0.00
2018-01-03T05:38:50.042Z,0.00
2018-01-03T05:39:50.022Z,0.00
2018-01-03T05:40:50.000Z,0.00
2018-01-03T05:41:49.981Z,0.00
2018-01-03T05:42:49.960Z,0.00
2018-01-03T05:43:49.939Z,0.00
2018-01-03T05:44:49.923Z,0.00
2018-01-03T05:45:49.904Z,0.00
2018-01-03T05:46:49.892Z,0.00
2018-01-03T05:47:49.864Z,0.00
2018-01-03T05:48:49.848Z,0.00
2018-01-03T05:49:49.827Z,0.00
2018-01-03T05:50:49.808Z,0.00
2018-01-03T05:51:49.786Z,0.00
2018-01-03T05:52:49.766Z,0.00
2018-01-03T05:53:49.750Z,0.00
2018-01-03T05:54:49.737Z,0.00
2018-01-03T05:55:49.707Z,0.00
2018-01-03T05:56:49.690Z,0.00
2018-01-03T05:57:49.672Z,0.00
2018-01-03T05:58:49.648Z,0.00
2018-01-03T05:59:49.633Z,0.00
2018-01-03T06:00:49.610Z,0.00
2018-01-03T06:01:49.596Z,0.00
2018-01-03T06:02:49.572Z,0.00
2018-01-03T06:03:49.553Z,0.00
2018-01-03T06:04:49.534Z,0.00
2018-01-03T06:05:49.513Z,0.00
2018-01-03T06:06:49.500Z,0.00
2018-01-03T06:07:49.472Z,0.00
2018-01-03T06:08:49.458Z,0.00
2018-01-03T06:09:49.434Z,0.00
2018-01-03T06:10:49.419Z,0.00
2018-01-03T06:11:49.401Z,0.00
2018-01-03T06:12:49.380Z,0.00
2018-01-03T06:13:49.358Z,0.00
2018-01-03T06:14:49.340Z,0.00
2018-01-03T06:15:49.318Z,0.00
2018-01-03T06:16:49.300Z,0.00
2018-01-03T06:17:49.279Z,0.00
2018-01-03T06:18:49.260Z,0.00
2018-01-03T06:19:49.239Z,0.00
2018-01-03T06:20:49.220Z,0.00
2018-01-03T06:21:49.203Z,0.00
2018-01-03T06:22:49.183Z,0.00
2018-01-03T06:23:49.169Z,0.00
2018-01-03T06:24:49.144Z,0.00
2018-01-03T06:25:49.125Z,0.00
2018-01-03T06:26:49.106Z,0.00
2018-01-03T06:27:49.091Z,0.00
2018-01-03T06:28:49.065Z,0.00
2018-01-03T06:29:49.052Z,0.00
2018-01-03T06:30:49.030Z,0.00
2018-01-03T06:31:49.007Z,0.00
2018-01-03T06:32:48.988Z,0.00
2018-01-03T06:33:48.968Z,0.00
2018-01-03T06:34:48.949Z,0.00
2018-01-03T06:35:48.929Z,0.00
2018-01-03T06:36:48.913Z,0.00
2018-01-03T06:37:48.892Z,0.00
2018-01-03T06:38:48.870Z,0.00
2018-01-03T06:39:48.848Z,0.00
2018-01-03T06:40:48.839Z,0.00
2018-01-03T06:41:48.815Z,0.00
2018-01-03T06:42:48.799Z,0.00
2018-01-03T06:43:48.774Z,0.00
2018-01-03T06:44:48.757Z,0.00
2018-01-03T06:45:48.738Z,0.00
2018-01-03T06:46:48.719Z,0.00
2018-01-03T06:47:48.698Z,0.00
2018-01-03T06:48:48.679Z,0.00
2018-01-03T06:49:48.660Z,0.00
2018-01-03T06:50:48.641Z,0.00
2018-01-03T06:51:48.622Z,0.00
2018-01-03T06:52:48.612Z,0.00
2018-01-03T06:53:48.581Z,0.00
2018-01-03T06:54:48.560Z,0.00
2018-01-03T06:55:48.540Z,0.00
2018-01-03T06:56:48.525Z,0.00
2018-01-03T06:57:48.518Z,0.00
2018-01-03T06:58:48.485Z,0.00
2018-01-03T06:59:48.464Z,0.00
2018-01-03T07:00:48.446Z,0.00
2018-01-03T07:01:48.425Z,0.00
2018-01-03T07:02:48.405Z,0.00
2018-01-03T07:03:48.384Z,0.00
2018-01-03T07:04:48.368Z,0.00
2018-01-03T07:05:48.347Z,0.00
2018-01-03T07:06:48.331Z,0.00
2018-01-03T07:07:48.305Z,0.00
2018-01-03T07:08:48.289Z,0.00
2018-01-03T07:09:48.265Z,0.00
2018-01-03T07:10:48.252Z,0.00
2018-01-03T07:11:48.226Z,0.00
2018-01-03T07:12:48.209Z,0.00
2018-01-03T07:13:48.188Z,0.00
2018-01-03T07:14:48.175Z,0.00
2018-01-03T07:15:48.149Z,4.00
2018-01-03T07:16:48.128Z,0.00
2018-01-03T07:17:48.111Z,0.00
2018-01-03T07:18:48.092Z,0.00
2018-01-03T07:19:48.068Z,0.00
2018-01-03T07:20:48.054Z,4.00
2018-01-03T07:21:48.031Z,0.00
2018-01-03T07:22:48.016Z,0.00
2018-01-03T07:23:47.996Z,4.00
2018-01-03T07:24:47.980Z,4.00
2018-01-03T07:25:47.955Z,4.00
2018-01-03T07:26:47.935Z,0.00
2018-01-03T07:27:47.914Z,4.00
2018-01-03T07:28:47.896Z,4.00
2018-01-03T07:29:47.873Z,4.00
2018-01-03T07:30:47.859Z,4.00
2018-01-03T07:31:47.840Z,4.00
2018-01-03T07:32:47.815Z,4.00
2018-01-03T07:33:47.799Z,4.00
2018-01-03T07:34:47.778Z,4.00
2018-01-03T07:35:47.758Z,4.00
2018-01-03T07:36:47.740Z,8.00
2018-01-03T07:37:47.721Z,4.00
2018-01-03T07:38:47.700Z,8.00
2018-01-03T07:39:47.678Z,8.00
2018-01-03T07:40:47.659Z,8.00
2018-01-03T07:41:47.641Z,12.00
2018-01-03T07:42:47.621Z,8.00
2018-01-03T07:43:47.599Z,8.00
2018-01-03T07:44:47.585Z,8.00
2018-01-03T07:45:47.562Z,8.00
2018-01-03T07:46:47.547Z,8.00
2018-01-03T07:47:47.522Z,4.00
2018-01-03T07:48:47.501Z,4.00
2018-01-03T07:49:47.478Z,8.00
2018-01-03T07:50:47.459Z,12.00
2018-01-03T07:51:47.439Z,12.00
2018-01-03T07:52:47.421Z,16.00
2018-01-03T07:53:47.408Z,16.00
2018-01-03T07:54:47.387Z,16.00
2018-01-03T07:55:47.359Z,16.00
2018-01-03T07:56:47.346Z,20.00
2018-01-03T07:57:47.322Z,16.00
2018-01-03T07:58:47.310Z,20.00
2018-01-03T07:59:47.281Z,16.00
2018-01-03T08:00:47.262Z,16.00
2018-01-03T08:01:47.245Z,12.00
2018-01-03T08:02:47.222Z,12.00
2018-01-03T08:03:47.206Z,12.00
2018-01-03T08:04:47.185Z,12.00
2018-01-03T08:05:47.162Z,12.00
2018-01-03T08:06:47.141Z,12.00
2018-01-03T08:07:47.119Z,20.00
2018-01-03T08:08:47.108Z,20.00
2018-01-03T08:09:47.082Z,20.00
2018-01-03T08:10:47.071Z,24.00
2018-01-03T08:11:47.038Z,24.00
2018-01-03T08:12:47.022Z,28.00
2018-01-03T08:13:47.000Z,32.00
2018-01-03T08:14:46.979Z,32.00
2018-01-03T08:15:46.959Z,36.00
2018-01-03T08:16:46.940Z,40.00
2018-01-03T08:17:46.920Z,44.00
2018-01-03T08:18:46.897Z,48.00
2018-01-03T08:19:46.879Z,48.00
2018-01-03T08:20:46.857Z,56.00
2018-01-03T08:21:46.841Z,56.00
2018-01-03T08:22:46.817Z,68.00
2018-01-03T08:23:46.800Z,76.00
2018-01-03T08:24:46.780Z,88.00
2018-01-03T08:25:46.758Z,100.00
2018-01-03T08:26:46.738Z,116.00
2018-01-03T08:27:46.713Z,132.00
2018-01-03T08:28:46.700Z,136.00
2018-01-03T08:29:46.673Z,124.00
2018-01-03T08:30:46.661Z,132.00
2018-01-03T08:31:46.634Z,128.00
2018-01-03T08:32:46.611Z,132.00
2018-01-03T08:33:46.596Z,132.00
2018-01-03T08:34:46.570Z,124.00
2018-01-03T08:35:46.561Z,116.00
2018-01-03T08:36:46.532Z,112.00
2018-01-03T08:37:46.513Z,104.00
2018-01-03T08:38:46.490Z,100.00
2018-01-03T08:39:46.477Z,124.00
2018-01-03T08:40:46.454Z,136.00
2018-01-03T08:41:46.429Z,168.00
2018-01-03T08:42:46.410Z,204.00
2018-01-03T08:43:46.391Z,208.00
2018-01-03T08:44:46.369Z,204.00
2018-01-03T08:45:46.352Z,204.00
2018-01-03T08:46:46.324Z,200.00
2018-01-03T08:47:46.302Z,196.00
2018-01-03T08:48:46.290Z,176.00
2018-01-03T08:49:46.263Z,168.00
2018-01-03T08:50:46.250Z,160.00
2018-01-03T08:51:46.223Z,152.00
2018-01-03T08:52:46.203Z,132.00
2018-01-03T08:53:46.182Z,108.00
2018-01-03T08:54:46.160Z,124.00
2018-01-03T08:55:46.139Z,112.00
2018-01-03T08:56:46.118Z,100.00
2018-01-03T08:57:46.098Z,104.00
2018-01-03T08:58:46.080Z,120.00
2018-01-03T08:59:46.056Z,136.00
2018-01-03T09:00:46.037Z,124.00
2018-01-03T09:01:46.019Z,136.00
2018-01-03T09:02:45.994Z,144.00
2018-01-03T09:03:45.989Z,140.00
2018-01-03T09:04:45.957Z,148.00
2018-01-03T09:05:45.939Z,172.00
2018-01-03T09:06:45.915Z,152.00
2018-01-03T09:07:45.891Z,160.00
2018-01-03T09:08:45.873Z,164.00
2018-01-03T09:09:45.852Z,148.00
2018-01-03T09:10:45.828Z,148.00
2018-01-03T09:11:45.810Z,176.00
2018-01-03T09:12:45.795Z,192.00
2018-01-03T09:13:45.771Z,168.00
2018-01-03T09:14:45.747Z,168.00
2018-01-03T09:15:45.731Z,200.00
2018-01-03T09:16:45.708Z,192.00
2018-01-03T09:17:45.689Z,200.00
2018-01-03T09:18:45.668Z,196.00
2018-01-03T09:19:45.645Z,200.00
2018-01-03T09:20:45.628Z,196.00
2018-01-03T09:21:45.608Z,196.00
2018-01-03T09:22:45.586Z,212.00
2018-01-03T09:23:45.625Z,236.00
2018-01-03T09:24:45.551Z,176.00
2018-01-03T09:25:45.529Z,200.00
2018-01-03T09:26:45.514Z,196.00
2018-01-03T09:27:45.486Z,204.00
2018-01-03T09:28:45.472Z,232.00
2018-01-03T09:29:45.454Z,220.00
2018-01-03T09:30:45.433Z,244.00
2018-01-03T09:31:45.408Z,272.00
2018-01-03T09:32:45.401Z,236.00
2018-01-03T09:33:45.360Z,228.00
2018-01-03T09:34:45.369Z,216.00
2018-01-03T09:35:45.319Z,180.00
2018-01-03T09:36:45.300Z,184.00
2018-01-03T09:37:45.280Z,204.00
2018-01-03T09:38:45.258Z,176.00
2018-01-03T09:39:45.239Z,192.00
2018-01-03T09:40:45.218Z,200.00
2018-01-03T09:41:45.200Z,204.00
2018-01-03T09:42:45.182Z,204.00
2018-01-03T09:43:45.155Z,184.00
2018-01-03T09:44:45.136Z,176.00
2018-01-03T09:45:45.119Z,184.00
2018-01-03T09:46:45.104Z,212.00
2018-01-03T09:47:45.084Z,212.00
2018-01-03T09:48:45.057Z,260.00
2018-01-03T09:49:45.035Z,280.00
2018-01-03T09:50:45.025Z,296.00
2018-01-03T09:51:45.002Z,292.00
2018-01-03T09:52:44.989Z,288.00
2018-01-03T09:53:44.959Z,288.00
2018-01-03T09:54:44.936Z,272.00
2018-01-03T09:55:44.919Z,312.00
2018-01-03T09:56:44.896Z,264.00
2018-01-03T09:57:44.878Z,240.00
2018-01-03T09:58:44.853Z,220.00
2018-01-03T09:59:44.830Z,208.00
2018-01-03T10:00:44.811Z,204.00
2018-01-03T10:01:44.786Z,204.00
2018-01-03T10:02:44.776Z,216.00
2018-01-03T10:03:44.750Z,208.00
2018-01-03T10:04:44.730Z,200.00
2018-01-03T10:05:44.707Z,196.00
2018-01-03T10:06:44.690Z,200.00
2018-01-03T10:07:44.672Z,216.00
2018-01-03T10:08:44.646Z,244.00
2018-01-03T10:09:44.627Z,288.00
2018-01-03T10:10:44.608Z,292.00
2018-01-03T10:11:44.590Z,288.00
2018-01-03T10:12:44.575Z,300.00
2018-01-03T10:13:44.550Z,332.00
2018-01-03T10:14:44.528Z,276.00
2018-01-03T10:15:44.506Z,284.00
2018-01-03T10:16:44.488Z,300.00
2018-01-03T10:17:44.465Z,312.00
2018-01-03T10:18:44.448Z,348.00
2018-01-03T10:19:44.430Z,328.00
2018-01-03T10:20:44.408Z,300.00
2018-01-03T10:21:44.387Z,328.00
2018-01-03T10:22:44.370Z,332.00
2018-01-03T10:23:44.348Z,304.00
2018-01-03T10:24:44.325Z,272.00
2018-01-03T10:25:44.303Z,256.00
2018-01-03T10:26:44.285Z,244.00
2018-01-03T10:27:44.267Z,248.00
2018-01-03T10:28:44.245Z,272.00
2018-01-03T10:29:44.231Z,312.00
2018-01-03T10:30:44.208Z,312.00
2018-01-03T10:31:44.192Z,336.00
2018-01-03T10:32:44.168Z,328.00
2018-01-03T10:33:44.143Z,300.00
2018-01-03T10:34:44.127Z,300.00
2018-01-03T10:35:44.108Z,316.00
2018-01-03T10:36:44.082Z,308.00
2018-01-03T10:37:44.113Z,300.00
2018-01-03T10:38:44.063Z,300.00
2018-01-03T10:39:44.021Z,300.00
2018-01-03T10:40:44.003Z,292.00
2018-01-03T10:41:43.984Z,288.00
2018-01-03T10:42:43.963Z,256.00
2018-01-03T10:43:43.999Z,228.00
2018-01-03T10:44:43.918Z,212.00
2018-01-03T10:45:43.905Z,192.00
2018-01-03T10:46:43.878Z,188.00
2018-01-03T10:47:43.862Z,192.00
2018-01-03T10:48:43.841Z,180.00
2018-01-03T10:49:43.829Z,152.00
2018-01-03T10:50:43.800Z,152.00
2018-01-03T10:51:43.777Z,148.00
2018-01-03T10:52:43.759Z,128.00
2018-01-03T10:53:43.749Z,120.00
2018-01-03T10:54:43.721Z,108.00
2018-01-03T10:55:43.703Z,116.00
2018-01-03T10:56:43.679Z,124.00
2018-01-03T10:57:43.659Z,120.00
2018-01-03T10:58:43.638Z,112.00
2018-01-03T10:59:43.618Z,112.00
2018-01-03T11:00:43.600Z,112.00
2018-01-03T11:01:43.586Z,92.00
2018-01-03T11:02:43.555Z,96.00
2018-01-03T11:03:43.539Z,84.00
2018-01-03T11:04:43.513Z,76.00
2018-01-03T11:05:43.505Z,104.00
2018-01-03T11:46:39.563Z,100.00
2018-01-03T11:47:39.534Z,108.00
2018-01-03T11:48:39.507Z,104.00
2018-01-03T11:49:39.479Z,88.00
2018-01-03T11:50:39.454Z,92.00
2018-01-03T11:51:39.431Z,116.00
2018-01-03T11:52:39.404Z,104.00
2018-01-03T11:53:39.374Z,80.00
2018-01-03T11:54:39.356Z,84.00
2018-01-03T11:55:39.330Z,80.00
2018-01-03T11:56:39.310Z,80.00
2018-01-03T11:57:39.280Z,84.00
2018-01-03T11:58:39.276Z,64.00
2018-01-03T11:59:39.240Z,72.00
2018-01-03T12:00:39.223Z,76.00
2018-01-03T12:01:39.189Z,68.00
2018-01-03T12:02:39.170Z,88.00
2018-01-03T12:03:39.149Z,80.00
2018-01-03T12:04:39.125Z,80.00
2018-01-03T12:05:39.102Z,96.00
2018-01-03T12:06:39.079Z,96.00
2018-01-03T12:07:39.062Z,84.00
2018-01-03T12:08:39.043Z,80.00
2018-01-03T12:09:39.013Z,84.00
2018-01-03T12:10:38.990Z,84.00
2018-01-03T12:11:38.980Z,68.00
2018-01-03T12:12:38.950Z,80.00
2018-01-03T12:13:38.930Z,120.00
2018-01-03T12:14:38.903Z,104.00
2018-01-03T12:15:38.887Z,84.00
2018-01-03T12:16:38.863Z,76.00
2018-01-03T12:17:38.839Z,84.00
2018-01-03T12:18:38.818Z,64.00
2018-01-03T12:19:38.795Z,68.00
2018-01-03T12:20:38.780Z,64.00
2018-01-03T12:21:38.760Z,64.00
2018-01-03T12:22:38.734Z,64.00
2018-01-03T12:23:38.711Z,60.00
2018-01-03T12:24:38.690Z,64.00
2018-01-03T12:25:38.671Z,76.00
2018-01-03T12:26:38.652Z,104.00
2018-01-03T12:27:38.626Z,88.00
2018-01-03T12:28:38.609Z,80.00
2018-01-03T12:29:38.588Z,76.00
2018-01-03T12:30:38.565Z,72.00
2018-01-03T12:31:38.565Z,60.00
2018-01-03T12:32:38.522Z,68.00
2018-01-03T12:33:38.502Z,64.00
2018-01-03T12:34:38.481Z,64.00
2018-01-03T12:35:38.456Z,64.00
2018-01-03T12:36:38.435Z,64.00
2018-01-03T12:37:38.421Z,80.00
2018-01-03T12:38:38.396Z,96.00
2018-01-03T12:39:38.373Z,96.00
2018-01-03T12:40:38.355Z,80.00
2018-01-03T12:41:38.335Z,68.00
2018-01-03T12:42:38.311Z,64.00
2018-01-03T12:43:38.294Z,80.00
2018-01-03T12:44:38.271Z,84.00
2018-01-03T12:45:38.246Z,92.00
2018-01-03T12:46:38.227Z,108.00
2018-01-03T12:47:38.210Z,112.00
2018-01-03T12:48:38.194Z,88.00
2018-01-03T12:49:38.172Z,92.00
2018-01-03T12:50:38.147Z,84.00
2018-01-03T12:51:38.128Z,72.00
2018-01-03T12:52:38.105Z,76.00
2018-01-03T12:53:38.093Z,84.00
2018-01-03T12:54:38.063Z,100.00
2018-01-03T12:55:38.037Z,100.00
2018-01-03T12:56:38.025Z,104.00
2018-01-03T12:57:37.996Z,120.00
2018-01-03T12:58:37.983Z,112.00
2018-01-03T12:59:37.963Z,108.00
2018-01-03T13:00:37.937Z,104.00
2018-01-03T13:01:37.912Z,92.00
2018-01-03T13:02:37.898Z,96.00
2018-01-03T13:03:37.867Z,100.00
2018-01-03T13:04:37.848Z,96.00
2018-01-03T13:05:37.830Z,84.00
2018-01-03T13:06:37.807Z,92.00
2018-01-03T13:07:37.785Z,80.00
2018-01-03T13:08:37.762Z,72.00
2018-01-03T13:09:37.745Z,80.00
2018-01-03T13:10:37.778Z,76.00
2018-01-03T13:11:37.708Z,84.00
2018-01-03T13:12:37.679Z,80.00
2018-01-03T13:13:37.663Z,80.00
2018-01-03T13:14:37.649Z,76.00
2018-01-03T13:15:37.617Z,72.00
2018-01-03T13:16:37.596Z,64.00
2018-01-03T13:17:37.572Z,68.00
2018-01-03T13:18:37.555Z,72.00
2018-01-03T13:19:37.540Z,84.00
2018-01-03T13:20:37.512Z,104.00
2018-01-03T13:21:37.493Z,104.00
2018-01-03T13:22:37.468Z,124.00
2018-01-03T13:23:37.452Z,132.00
2018-01-03T13:24:37.429Z,128.00
2018-01-03T13:25:37.405Z,108.00
2018-01-03T13:26:37.387Z,84.00
2018-01-03T13:27:37.371Z,64.00
2018-01-03T13:28:37.346Z,68.00
2018-01-03T13:29:37.323Z,64.00
2018-01-03T13:30:37.310Z,64.00
2018-01-03T13:31:37.292Z,60.00
2018-01-03T13:32:37.257Z,72.00
2018-01-03T13:33:37.240Z,64.00
2018-01-03T13:34:37.222Z,60.00
2018-01-03T13:35:37.200Z,68.00
2018-01-03T13:36:37.176Z,72.00
2018-01-03T13:37:37.152Z,68.00
2018-01-03T13:38:37.144Z,88.00
2018-01-03T13:39:37.114Z,92.00
2018-01-03T13:40:37.091Z,80.00
2018-01-03T13:41:37.072Z,92.00